sensor_id;sensor_type;location;lat;lon;timestamp;temperature;humidity
43143;DHT22;28750;59.842;17.584;2023-03-24T00:01:53;6.60;99.90
43143;DHT22;28750;59.842;17.584;2023-03-24T00:04:20;6.60;99.90
43143;DHT22;28750;59.842;17.584;2023-03-24T00:06:47;6.50;99.90
43143;DHT22;28750;59.842;17.584;2023-03-24T00:09:15;6.50;99.90
43143;DHT22;28750;59.842;17.584;2023-03-24T00:11:42;6.50;99.90
43143;DHT22;28750;59.842;17.584;2023-03-24T00:14:10;6.50;91.00
43143;DHT22;28750;59.842;17.584;2023-03-24T00:16:41;6.50;91.30
43143;DHT22;28750;59.842;17.584;2023-03-24T00:19:11;6.50;36.30
43143;DHT22;28750;59.842;17.584;2023-03-24T00:21:39;6.50;1.00
43143;DHT22;28750;59.842;17.584;2023-03-24T00:24:09;6.50;1.00
43143;DHT22;28750;59.842;17.584;2023-03-24T00:26:39;6.50;1.00
43143;DHT22;28750;59.842;17.584;2023-03-24T00:29:08;6.50;99.90
43143;DHT22;28750;59.842;17.584;2023-03-24T00:31:35;6.50;99.90
43143;DHT22;28750;59.842;17.584;2023-03-24T00:34:06;6.50;99.90
43143;DHT22;28750;59.842;17.584;2023-03-24T00:36:35;6.50;99.90
43143;DHT22;28750;59.842;17.584;2023-03-24T00:39:03;6.60;6.70
43143;DHT22;28750;59.842;17.584;2023-03-24T00:41:31;6.60;99.90
43143;DHT22;28750;59.842;17.584;2023-03-24T00:43:59;6.60;99.90
43143;DHT22;28750;59.842;17.584;2023-03-24T00:46:30;6.60;99.90
43143;DHT22;28750;59.842;17.584;2023-03-24T00:49:05;6.60;99.90
43143;DHT22;28750;59.842;17.584;2023-03-24T00:51:37;6.60;99.90
43143;DHT22;28750;59.842;17.584;2023-03-24T00:54:07;6.60;99.90
43143;DHT22;28750;59.842;17.584;2023-03-24T00:56:36;6.60;23.50
43143;DHT22;28750;59.842;17.584;2023-03-24T00:59:05;6.60;1.00
43143;DHT22;28750;59.842;17.584;2023-03-24T01:01:34;6.60;38.30
43143;DHT22;28750;59.842;17.584;2023-03-24T01:04:03;6.60;99.90
43143;DHT22;28750;59.842;17.584;2023-03-24T01:06:30;6.60;99.90
43143;DHT22;28750;59.842;17.584;2023-03-24T01:08:57;6.50;99.90
43143;DHT22;28750;59.842;17.584;2023-03-24T01:11:27;6.50;99.90
43143;DHT22;28750;59.842;17.584;2023-03-24T01:13:54;6.50;1.00
43143;DHT22;28750;59.842;17.584;2023-03-24T01:16:21;6.60;1.00
43143;DHT22;28750;59.842;17.584;2023-03-24T01:18:50;6.60;1.00
43143;DHT22;28750;59.842;17.584;2023-03-24T01:21:17;6.60;1.00
43143;DHT22;28750;59.842;17.584;2023-03-24T01:23:44;6.60;1.00
43143;DHT22;28750;59.842;17.584;2023-03-24T01:26:12;6.60;1.00
43143;DHT22;28750;59.842;17.584;2023-03-24T01:28:39;6.60;1.00
43143;DHT22;28750;59.842;17.584;2023-03-24T01:31:09;6.50;99.90
43143;DHT22;28750;59.842;17.584;2023-03-24T01:33:37;6.50;99.90
43143;DHT22;28750;59.842;17.584;2023-03-24T01:36:05;6.60;99.90
43143;DHT22;28750;59.842;17.584;2023-03-24T01:38:32;6.60;99.90
43143;DHT22;28750;59.842;17.584;2023-03-24T01:40:59;6.60;99.90
43143;DHT22;28750;59.842;17.584;2023-03-24T01:43:28;6.50;99.90
43143;DHT22;28750;59.842;17.584;2023-03-24T01:46:04;6.50;99.90
43143;DHT22;28750;59.842;17.584;2023-03-24T01:48:58;6.50;99.90
43143;DHT22;28750;59.842;17.584;2023-03-24T01:51:31;6.50;99.90
43143;DHT22;28750;59.842;17.584;2023-03-24T01:56:33;6.50;99.90
43143;DHT22;28750;59.842;17.584;2023-03-24T01:59:05;6.50;99.90
43143;DHT22;28750;59.842;17.584;2023-03-24T02:01:33;6.50;1.00
43143;DHT22;28750;59.842;17.584;2023-03-24T02:04:02;6.50;1.00
43143;DHT22;28750;59.842;17.584;2023-03-24T02:06:32;6.50;1.00
43143;DHT22;28750;59.842;17.584;2023-03-24T02:09:01;6.50;1.00
43143;DHT22;28750;59.842;17.584;2023-03-24T02:11:31;6.50;1.00
43143;DHT22;28750;59.842;17.584;2023-03-24T02:13:59;6.50;1.00
43143;DHT22;28750;59.842;17.584;2023-03-24T02:22:54;6.40;10.00
43143;DHT22;28750;59.842;17.584;2023-03-24T02:34:48;6.50;99.90
43143;DHT22;28750;59.842;17.584;2023-03-24T02:52:19;6.40;99.90
43143;DHT22;28750;59.842;17.584;2023-03-24T02:55:19;6.40;99.90
43143;DHT22;28750;59.842;17.584;2023-03-24T02:58:05;6.40;99.90
43143;DHT22;28750;59.842;17.584;2023-03-24T03:01:02;6.40;99.90
43143;DHT22;28750;59.842;17.584;2023-03-24T03:06:20;6.40;99.90
43143;DHT22;28750;59.842;17.584;2023-03-24T03:08:49;6.40;99.90
43143;DHT22;28750;59.842;17.584;2023-03-24T03:11:17;6.30;99.90
43143;DHT22;28750;59.842;17.584;2023-03-24T03:14:02;6.40;99.90
43143;DHT22;28750;59.842;17.584;2023-03-24T03:16:43;6.30;99.90
43143;DHT22;28750;59.842;17.584;2023-03-24T03:19:20;6.40;99.90
43143;DHT22;28750;59.842;17.584;2023-03-24T03:21:49;6.40;99.90
43143;DHT22;28750;59.842;17.584;2023-03-24T03:24:27;6.30;99.90
43143;DHT22;28750;59.842;17.584;2023-03-24T03:27:17;6.40;99.90
43143;DHT22;28750;59.842;17.584;2023-03-24T03:29:48;6.30;99.90
43143;DHT22;28750;59.842;17.584;2023-03-24T03:32:41;6.30;99.90
43143;DHT22;28750;59.842;17.584;2023-03-24T03:35:28;6.40;99.90
43143;DHT22;28750;59.842;17.584;2023-03-24T03:38:11;6.30;99.90
43143;DHT22;28750;59.842;17.584;2023-03-24T03:40:52;6.30;99.90
43143;DHT22;28750;59.842;17.584;2023-03-24T03:43:21;6.30;99.90
43143;DHT22;28750;59.842;17.584;2023-03-24T03:45:48;6.30;99.90
43143;DHT22;28750;59.842;17.584;2023-03-24T03:48:16;6.40;99.90
43143;DHT22;28750;59.842;17.584;2023-03-24T03:50:44;6.40;99.90
43143;DHT22;28750;59.842;17.584;2023-03-24T03:53:14;6.40;99.90
43143;DHT22;28750;59.842;17.584;2023-03-24T03:55:43;6.40;99.90
43143;DHT22;28750;59.842;17.584;2023-03-24T03:58:10;6.40;99.90
43143;DHT22;28750;59.842;17.584;2023-03-24T04:00:37;6.40;99.90
43143;DHT22;28750;59.842;17.584;2023-03-24T04:06:46;6.50;99.90
43143;DHT22;28750;59.842;17.584;2023-03-24T04:12:03;6.40;99.90
43143;DHT22;28750;59.842;17.584;2023-03-24T04:14:39;6.40;99.90
43143;DHT22;28750;59.842;17.584;2023-03-24T04:20:18;6.40;99.90
43143;DHT22;28750;59.842;17.584;2023-03-24T04:23:04;6.30;99.90
43143;DHT22;28750;59.842;17.584;2023-03-24T04:31:33;6.40;99.90
43143;DHT22;28750;59.842;17.584;2023-03-24T04:34:12;6.40;99.90
43143;DHT22;28750;59.842;17.584;2023-03-24T04:39:16;6.40;99.90
43143;DHT22;28750;59.842;17.584;2023-03-24T04:41:51;6.40;99.90
43143;DHT22;28750;59.842;17.584;2023-03-24T04:44:18;6.40;99.90
43143;DHT22;28750;59.842;17.584;2023-03-24T04:46:49;6.40;99.90
43143;DHT22;28750;59.842;17.584;2023-03-24T04:49:16;6.30;99.90
43143;DHT22;28750;59.842;17.584;2023-03-24T04:51:45;6.30;99.90
43143;DHT22;28750;59.842;17.584;2023-03-24T04:54:12;6.30;99.90
43143;DHT22;28750;59.842;17.584;2023-03-24T04:56:48;6.30;99.90
43143;DHT22;28750;59.842;17.584;2023-03-24T04:59:16;6.30;99.90
43143;DHT22;28750;59.842;17.584;2023-03-24T05:01:44;6.30;99.90
43143;DHT22;28750;59.842;17.584;2023-03-24T05:04:15;6.30;99.90
43143;DHT22;28750;59.842;17.584;2023-03-24T05:06:42;6.30;99.90
43143;DHT22;28750;59.842;17.584;2023-03-24T05:09:12;6.20;99.90
43143;DHT22;28750;59.842;17.584;2023-03-24T05:11:40;6.30;99.90
43143;DHT22;28750;59.842;17.584;2023-03-24T05:14:07;6.30;99.90
43143;DHT22;28750;59.842;17.584;2023-03-24T05:16:34;6.30;99.90
43143;DHT22;28750;59.842;17.584;2023-03-24T05:19:01;6.30;99.90
43143;DHT22;28750;59.842;17.584;2023-03-24T05:21:29;6.20;99.90
43143;DHT22;28750;59.842;17.584;2023-03-24T05:23:56;6.30;99.90
43143;DHT22;28750;59.842;17.584;2023-03-24T05:26:23;6.30;99.90
43143;DHT22;28750;59.842;17.584;2023-03-24T05:28:51;6.40;99.90
43143;DHT22;28750;59.842;17.584;2023-03-24T05:31:18;6.30;99.90
43143;DHT22;28750;59.842;17.584;2023-03-24T05:33:46;6.30;99.90
43143;DHT22;28750;59.842;17.584;2023-03-24T05:36:13;6.30;99.90
43143;DHT22;28750;59.842;17.584;2023-03-24T05:38:40;6.30;99.90
43143;DHT22;28750;59.842;17.584;2023-03-24T05:41:07;6.30;99.90
43143;DHT22;28750;59.842;17.584;2023-03-24T05:43:34;6.30;99.90
43143;DHT22;28750;59.842;17.584;2023-03-24T05:46:01;6.40;99.90
43143;DHT22;28750;59.842;17.584;2023-03-24T05:48:28;6.50;99.90
43143;DHT22;28750;59.842;17.584;2023-03-24T05:50:55;6.40;99.90
43143;DHT22;28750;59.842;17.584;2023-03-24T05:53:22;6.30;99.90
43143;DHT22;28750;59.842;17.584;2023-03-24T05:55:49;6.30;99.90
43143;DHT22;28750;59.842;17.584;2023-03-24T05:58:18;6.40;99.90
43143;DHT22;28750;59.842;17.584;2023-03-24T06:00:46;6.30;99.90
43143;DHT22;28750;59.842;17.584;2023-03-24T06:03:13;6.40;99.90
43143;DHT22;28750;59.842;17.584;2023-03-24T06:05:42;6.40;99.90
43143;DHT22;28750;59.842;17.584;2023-03-24T06:08:10;6.40;99.90
43143;DHT22;28750;59.842;17.584;2023-03-24T06:10:37;6.50;99.90
43143;DHT22;28750;59.842;17.584;2023-03-24T06:13:05;6.50;99.90
43143;DHT22;28750;59.842;17.584;2023-03-24T06:15:34;6.50;99.90
43143;DHT22;28750;59.842;17.584;2023-03-24T06:18:01;6.60;99.90
43143;DHT22;28750;59.842;17.584;2023-03-24T06:20:29;6.60;99.90
43143;DHT22;28750;59.842;17.584;2023-03-24T06:22:56;6.60;99.90
43143;DHT22;28750;59.842;17.584;2023-03-24T06:25:24;6.60;99.90
43143;DHT22;28750;59.842;17.584;2023-03-24T06:27:53;6.60;99.90
43143;DHT22;28750;59.842;17.584;2023-03-24T06:30:20;6.70;99.90
43143;DHT22;28750;59.842;17.584;2023-03-24T06:32:47;6.60;99.90
43143;DHT22;28750;59.842;17.584;2023-03-24T06:35:15;6.60;99.90
43143;DHT22;28750;59.842;17.584;2023-03-24T06:37:43;6.60;99.90
43143;DHT22;28750;59.842;17.584;2023-03-24T06:40:11;6.60;99.90
43143;DHT22;28750;59.842;17.584;2023-03-24T06:42:40;6.70;99.90
43143;DHT22;28750;59.842;17.584;2023-03-24T06:45:08;6.60;99.90
43143;DHT22;28750;59.842;17.584;2023-03-24T06:47:35;6.70;99.90
43143;DHT22;28750;59.842;17.584;2023-03-24T06:50:03;6.70;99.90
43143;DHT22;28750;59.842;17.584;2023-03-24T06:52:31;6.80;99.90
43143;DHT22;28750;59.842;17.584;2023-03-24T06:54:58;6.80;99.90
43143;DHT22;28750;59.842;17.584;2023-03-24T06:57:25;6.90;99.90
43143;DHT22;28750;59.842;17.584;2023-03-24T06:59:53;7.00;99.90
43143;DHT22;28750;59.842;17.584;2023-03-24T07:02:20;7.00;99.90
43143;DHT22;28750;59.842;17.584;2023-03-24T07:04:48;7.00;99.90
43143;DHT22;28750;59.842;17.584;2023-03-24T07:07:15;6.90;99.90
43143;DHT22;28750;59.842;17.584;2023-03-24T07:09:43;7.10;99.90
43143;DHT22;28750;59.842;17.584;2023-03-24T07:12:09;7.40;99.90
43143;DHT22;28750;59.842;17.584;2023-03-24T07:14:37;7.40;99.90
43143;DHT22;28750;59.842;17.584;2023-03-24T07:17:04;7.40;99.90
43143;DHT22;28750;59.842;17.584;2023-03-24T07:19:31;7.30;99.90
43143;DHT22;28750;59.842;17.584;2023-03-24T07:21:58;7.40;99.90
43143;DHT22;28750;59.842;17.584;2023-03-24T07:24:25;7.60;99.90
43143;DHT22;28750;59.842;17.584;2023-03-24T07:26:52;7.90;99.90
43143;DHT22;28750;59.842;17.584;2023-03-24T07:29:19;8.00;54.20
43143;DHT22;28750;59.842;17.584;2023-03-24T07:31:46;8.10;1.00
43143;DHT22;28750;59.842;17.584;2023-03-24T07:34:13;8.10;99.90
43143;DHT22;28750;59.842;17.584;2023-03-24T07:36:40;7.80;99.90
43143;DHT22;28750;59.842;17.584;2023-03-24T07:39:07;7.80;99.90
43143;DHT22;28750;59.842;17.584;2023-03-24T07:41:34;7.70;1.00
43143;DHT22;28750;59.842;17.584;2023-03-24T07:44:01;7.70;1.00
43143;DHT22;28750;59.842;17.584;2023-03-24T07:46:27;7.60;1.00
43143;DHT22;28750;59.842;17.584;2023-03-24T07:48:54;7.40;1.00
43143;DHT22;28750;59.842;17.584;2023-03-24T07:51:21;7.40;99.90
43143;DHT22;28750;59.842;17.584;2023-03-24T07:53:48;7.30;99.90
43143;DHT22;28750;59.842;17.584;2023-03-24T07:56:16;7.30;99.90
43143;DHT22;28750;59.842;17.584;2023-03-24T07:58:42;7.40;99.90
43143;DHT22;28750;59.842;17.584;2023-03-24T08:01:10;7.50;99.90
43143;DHT22;28750;59.842;17.584;2023-03-24T08:03:37;7.50;99.90
43143;DHT22;28750;59.842;17.584;2023-03-24T08:06:07;7.60;79.70
43143;DHT22;28750;59.842;17.584;2023-03-24T08:08:35;7.60;1.00
43143;DHT22;28750;59.842;17.584;2023-03-24T08:11:03;7.60;1.00
43143;DHT22;28750;59.842;17.584;2023-03-24T08:13:31;7.60;1.00
43143;DHT22;28750;59.842;17.584;2023-03-24T08:15:58;7.50;1.00
43143;DHT22;28750;59.842;17.584;2023-03-24T08:18:25;7.50;1.00
43143;DHT22;28750;59.842;17.584;2023-03-24T08:20:57;7.50;1.00
43143;DHT22;28750;59.842;17.584;2023-03-24T08:23:26;7.50;1.00
43143;DHT22;28750;59.842;17.584;2023-03-24T08:25:53;7.70;1.00
43143;DHT22;28750;59.842;17.584;2023-03-24T08:28:20;7.80;1.00
43143;DHT22;28750;59.842;17.584;2023-03-24T08:30:47;7.80;99.90
43143;DHT22;28750;59.842;17.584;2023-03-24T08:33:15;7.90;99.90
43143;DHT22;28750;59.842;17.584;2023-03-24T08:35:42;8.00;99.90
43143;DHT22;28750;59.842;17.584;2023-03-24T08:38:11;8.20;99.90
43143;DHT22;28750;59.842;17.584;2023-03-24T08:40:40;8.20;1.00
43143;DHT22;28750;59.842;17.584;2023-03-24T08:43:12;8.30;1.00
43143;DHT22;28750;59.842;17.584;2023-03-24T08:45:40;8.40;99.90
43143;DHT22;28750;59.842;17.584;2023-03-24T08:48:08;8.40;83.60
43143;DHT22;28750;59.842;17.584;2023-03-24T08:50:38;8.20;1.00
43143;DHT22;28750;59.842;17.584;2023-03-24T08:53:07;8.30;99.90
43143;DHT22;28750;59.842;17.584;2023-03-24T08:55:34;8.50;99.90
43143;DHT22;28750;59.842;17.584;2023-03-24T08:58:07;8.50;80.40
43143;DHT22;28750;59.842;17.584;2023-03-24T09:00:35;8.50;41.20
43143;DHT22;28750;59.842;17.584;2023-03-24T09:03:02;8.50;99.90
43143;DHT22;28750;59.842;17.584;2023-03-24T09:05:31;8.50;1.00
43143;DHT22;28750;59.842;17.584;2023-03-24T09:07:58;8.60;1.00
43143;DHT22;28750;59.842;17.584;2023-03-24T09:10:25;8.50;1.00
43143;DHT22;28750;59.842;17.584;2023-03-24T09:12:52;8.40;1.00
43143;DHT22;28750;59.842;17.584;2023-03-24T09:15:19;8.40;1.00
43143;DHT22;28750;59.842;17.584;2023-03-24T09:17:46;8.30;29.00
43143;DHT22;28750;59.842;17.584;2023-03-24T09:20:14;8.30;99.90
43143;DHT22;28750;59.842;17.584;2023-03-24T09:22:45;8.20;99.90
43143;DHT22;28750;59.842;17.584;2023-03-24T09:25:15;8.20;99.90
43143;DHT22;28750;59.842;17.584;2023-03-24T09:27:42;8.30;99.90
43143;DHT22;28750;59.842;17.584;2023-03-24T09:30:10;8.20;99.90
43143;DHT22;28750;59.842;17.584;2023-03-24T09:32:38;8.30;99.90
43143;DHT22;28750;59.842;17.584;2023-03-24T09:35:05;8.40;99.90
43143;DHT22;28750;59.842;17.584;2023-03-24T09:37:35;8.30;99.90
43143;DHT22;28750;59.842;17.584;2023-03-24T09:40:03;8.30;34.90
43143;DHT22;28750;59.842;17.584;2023-03-24T09:42:36;8.30;99.90
43143;DHT22;28750;59.842;17.584;2023-03-24T09:45:11;8.60;36.90
43143;DHT22;28750;59.842;17.584;2023-03-24T09:47:41;8.70;1.00
43143;DHT22;28750;59.842;17.584;2023-03-24T09:50:38;8.60;99.90
43143;DHT22;28750;59.842;17.584;2023-03-24T09:55:47;8.70;99.90
43143;DHT22;28750;59.842;17.584;2023-03-24T09:58:15;9.00;99.90
43143;DHT22;28750;59.842;17.584;2023-03-24T10:00:44;8.90;99.90
43143;DHT22;28750;59.842;17.584;2023-03-24T10:03:18;9.00;99.90
43143;DHT22;28750;59.842;17.584;2023-03-24T10:05:57;8.90;99.90
43143;DHT22;28750;59.842;17.584;2023-03-24T10:08:34;8.90;99.90
43143;DHT22;28750;59.842;17.584;2023-03-24T10:12:24;8.90;99.90
43143;DHT22;28750;59.842;17.584;2023-03-24T10:17:32;8.90;99.90
43143;DHT22;28750;59.842;17.584;2023-03-24T10:20:13;9.00;56.80
43143;DHT22;28750;59.842;17.584;2023-03-24T10:23:33;9.20;99.90
43143;DHT22;28750;59.842;17.584;2023-03-24T10:31:04;8.90;1.00
43143;DHT22;28750;59.842;17.584;2023-03-24T10:33:39;9.10;93.60
43143;DHT22;28750;59.842;17.584;2023-03-24T10:36:14;9.10;65.30
43143;DHT22;28750;59.842;17.584;2023-03-24T10:38:43;9.10;16.60
43143;DHT22;28750;59.842;17.584;2023-03-24T10:41:17;8.90;61.20
43143;DHT22;28750;59.842;17.584;2023-03-24T10:43:46;8.90;14.80
43143;DHT22;28750;59.842;17.584;2023-03-24T10:46:17;8.90;1.00
43143;DHT22;28750;59.842;17.584;2023-03-24T10:48:49;9.00;99.90
43143;DHT22;28750;59.842;17.584;2023-03-24T10:51:20;9.10;91.10
43143;DHT22;28750;59.842;17.584;2023-03-24T10:54:18;9.00;17.30
43143;DHT22;28750;59.842;17.584;2023-03-24T10:56:51;8.80;99.90
43143;DHT22;28750;59.842;17.584;2023-03-24T10:59:35;8.80;99.90
43143;DHT22;28750;59.842;17.584;2023-03-24T11:04:37;8.80;99.90
43143;DHT22;28750;59.842;17.584;2023-03-24T11:09:45;8.70;99.90
43143;DHT22;28750;59.842;17.584;2023-03-24T11:17:41;8.70;99.90
43143;DHT22;28750;59.842;17.584;2023-03-24T11:20:19;8.60;99.90
43143;DHT22;28750;59.842;17.584;2023-03-24T11:26:01;8.60;1.00
43143;DHT22;28750;59.842;17.584;2023-03-24T11:28:36;8.60;1.00
43143;DHT22;28750;59.842;17.584;2023-03-24T11:31:09;8.40;1.00
43143;DHT22;28750;59.842;17.584;2023-03-24T11:36:48;8.20;99.90
43143;DHT22;28750;59.842;17.584;2023-03-24T11:44:24;8.20;99.90
43143;DHT22;28750;59.842;17.584;2023-03-24T11:47:01;8.00;1.00
43143;DHT22;28750;59.842;17.584;2023-03-24T11:49:32;7.90;99.90
43143;DHT22;28750;59.842;17.584;2023-03-24T11:52:02;7.90;1.00
43143;DHT22;28750;59.842;17.584;2023-03-24T11:54:33;7.90;16.20
43143;DHT22;28750;59.842;17.584;2023-03-24T11:57:08;7.80;99.90
43143;DHT22;28750;59.842;17.584;2023-03-24T11:59:56;7.90;99.90
43143;DHT22;28750;59.842;17.584;2023-03-24T12:03:18;7.60;99.90
43143;DHT22;28750;59.842;17.584;2023-03-24T12:05:37;7.50;99.90
43143;DHT22;28750;59.842;17.584;2023-03-24T12:10:56;7.20;99.90
43143;DHT22;28750;59.842;17.584;2023-03-24T12:13:37;7.20;99.90
43143;DHT22;28750;59.842;17.584;2023-03-24T12:22:37;7.10;99.90
43143;DHT22;28750;59.842;17.584;2023-03-24T12:25:37;7.00;99.90
43143;DHT22;28750;59.842;17.584;2023-03-24T12:28:12;7.10;99.90
43143;DHT22;28750;59.842;17.584;2023-03-24T12:36:58;7.00;99.90
43143;DHT22;28750;59.842;17.584;2023-03-24T12:39:29;7.00;99.90
43143;DHT22;28750;59.842;17.584;2023-03-24T12:55:45;7.10;99.90
43143;DHT22;28750;59.842;17.584;2023-03-24T12:58:19;7.10;99.90
43143;DHT22;28750;59.842;17.584;2023-03-24T13:03:42;7.10;99.90
43143;DHT22;28750;59.842;17.584;2023-03-24T13:06:29;7.30;99.90
43143;DHT22;28750;59.842;17.584;2023-03-24T13:11:45;7.30;99.90
43143;DHT22;28750;59.842;17.584;2023-03-24T13:14:20;7.30;99.90
43143;DHT22;28750;59.842;17.584;2023-03-24T13:16:49;7.30;99.90
43143;DHT22;28750;59.842;17.584;2023-03-24T13:19:19;7.30;99.90
43143;DHT22;28750;59.842;17.584;2023-03-24T13:21:49;7.40;99.90
43143;DHT22;28750;59.842;17.584;2023-03-24T13:24:17;7.30;99.90
43143;DHT22;28750;59.842;17.584;2023-03-24T13:27:24;7.30;99.90
43143;DHT22;28750;59.842;17.584;2023-03-24T13:32:44;7.40;99.90
43143;DHT22;28750;59.842;17.584;2023-03-24T13:37:53;7.40;99.90
43143;DHT22;28750;59.842;17.584;2023-03-24T13:40:27;7.40;99.90
43143;DHT22;28750;59.842;17.584;2023-03-24T13:43:10;7.40;99.90
43143;DHT22;28750;59.842;17.584;2023-03-24T13:45:48;7.40;99.90
43143;DHT22;28750;59.842;17.584;2023-03-24T13:48:27;7.40;99.90
43143;DHT22;28750;59.842;17.584;2023-03-24T13:56:32;7.50;99.90
43143;DHT22;28750;59.842;17.584;2023-03-24T14:02:16;7.50;99.90
43143;DHT22;28750;59.842;17.584;2023-03-24T14:05:29;7.60;99.90
43143;DHT22;28750;59.842;17.584;2023-03-24T14:10:46;7.60;99.90
43143;DHT22;28750;59.842;17.584;2023-03-24T14:15:44;7.50;99.90
43143;DHT22;28750;59.842;17.584;2023-03-24T14:23:47;7.60;99.90
43143;DHT22;28750;59.842;17.584;2023-03-24T14:28:52;7.50;99.90
43143;DHT22;28750;59.842;17.584;2023-03-24T14:31:27;7.60;99.90
43143;DHT22;28750;59.842;17.584;2023-03-24T14:41:40;7.60;99.90
43143;DHT22;28750;59.842;17.584;2023-03-24T14:44:08;7.60;99.90
43143;DHT22;28750;59.842;17.584;2023-03-24T14:49:16;7.40;99.90
43143;DHT22;28750;59.842;17.584;2023-03-24T14:55:37;7.50;99.90
43143;DHT22;28750;59.842;17.584;2023-03-24T14:57:53;7.50;99.90
43143;DHT22;28750;59.842;17.584;2023-03-24T15:00:25;7.50;99.90
43143;DHT22;28750;59.842;17.584;2023-03-24T15:03:20;7.50;99.90
43143;DHT22;28750;59.842;17.584;2023-03-24T15:05:49;7.30;99.90
43143;DHT22;28750;59.842;17.584;2023-03-24T15:08:21;7.40;99.90
43143;DHT22;28750;59.842;17.584;2023-03-24T15:11:01;7.30;99.90
43143;DHT22;28750;59.842;17.584;2023-03-24T15:16:22;7.30;99.90
43143;DHT22;28750;59.842;17.584;2023-03-24T15:19:30;7.20;99.90
43143;DHT22;28750;59.842;17.584;2023-03-24T15:22:00;7.20;99.90
43143;DHT22;28750;59.842;17.584;2023-03-24T15:24:34;7.20;99.90
43143;DHT22;28750;59.842;17.584;2023-03-24T15:29:40;7.20;99.90
43143;DHT22;28750;59.842;17.584;2023-03-24T15:32:19;7.20;99.90
43143;DHT22;28750;59.842;17.584;2023-03-24T15:34:54;7.10;99.90
43143;DHT22;28750;59.842;17.584;2023-03-24T15:37:43;7.10;99.90
43143;DHT22;28750;59.842;17.584;2023-03-24T15:42:57;7.00;99.90
43143;DHT22;28750;59.842;17.584;2023-03-24T15:45:27;7.00;99.90
43143;DHT22;28750;59.842;17.584;2023-03-24T15:47:56;7.00;99.90
43143;DHT22;28750;59.842;17.584;2023-03-24T15:50:35;7.00;99.90
43143;DHT22;28750;59.842;17.584;2023-03-24T15:58:55;7.00;99.90
43143;DHT22;28750;59.842;17.584;2023-03-24T16:01:27;6.90;99.90
43143;DHT22;28750;59.842;17.584;2023-03-24T16:04:27;7.00;99.90
43143;DHT22;28750;59.842;17.584;2023-03-24T16:06:55;6.90;99.90
43143;DHT22;28750;59.842;17.584;2023-03-24T16:09:23;6.90;99.90
43143;DHT22;28750;59.842;17.584;2023-03-24T16:11:52;6.90;99.90
43143;DHT22;28750;59.842;17.584;2023-03-24T16:14:23;6.90;99.90
43143;DHT22;28750;59.842;17.584;2023-03-24T16:16:56;6.90;99.90
43143;DHT22;28750;59.842;17.584;2023-03-24T16:19:24;6.90;99.90
43143;DHT22;28750;59.842;17.584;2023-03-24T16:21:51;6.90;99.90
43143;DHT22;28750;59.842;17.584;2023-03-24T16:24:19;6.90;99.90
43143;DHT22;28750;59.842;17.584;2023-03-24T16:26:46;6.90;99.90
43143;DHT22;28750;59.842;17.584;2023-03-24T16:29:18;6.90;99.90
43143;DHT22;28750;59.842;17.584;2023-03-24T16:31:47;6.90;99.90
43143;DHT22;28750;59.842;17.584;2023-03-24T16:34:15;6.90;99.90
43143;DHT22;28750;59.842;17.584;2023-03-24T16:36:44;6.90;99.90
43143;DHT22;28750;59.842;17.584;2023-03-24T16:39:26;6.90;99.90
43143;DHT22;28750;59.842;17.584;2023-03-24T16:41:54;6.80;99.90
43143;DHT22;28750;59.842;17.584;2023-03-24T16:44:21;6.80;99.90
43143;DHT22;28750;59.842;17.584;2023-03-24T16:46:52;6.80;99.90
43143;DHT22;28750;59.842;17.584;2023-03-24T16:49:20;6.80;99.90
43143;DHT22;28750;59.842;17.584;2023-03-24T16:51:48;6.80;99.90
43143;DHT22;28750;59.842;17.584;2023-03-24T16:54:17;6.80;99.90
43143;DHT22;28750;59.842;17.584;2023-03-24T16:56:44;6.70;99.90
43143;DHT22;28750;59.842;17.584;2023-03-24T16:59:11;6.70;99.90
43143;DHT22;28750;59.842;17.584;2023-03-24T17:01:43;6.70;99.90
43143;DHT22;28750;59.842;17.584;2023-03-24T17:04:17;6.70;99.90
43143;DHT22;28750;59.842;17.584;2023-03-24T17:06:47;6.70;99.90
43143;DHT22;28750;59.842;17.584;2023-03-24T17:09:18;6.70;99.90
43143;DHT22;28750;59.842;17.584;2023-03-24T17:11:51;6.70;99.90
43143;DHT22;28750;59.842;17.584;2023-03-24T17:14:19;6.70;99.90
43143;DHT22;28750;59.842;17.584;2023-03-24T17:16:46;6.70;99.90
43143;DHT22;28750;59.842;17.584;2023-03-24T17:19:19;6.60;99.90
43143;DHT22;28750;59.842;17.584;2023-03-24T17:21:55;6.70;99.90
43143;DHT22;28750;59.842;17.584;2023-03-24T17:24:23;6.70;99.90
43143;DHT22;28750;59.842;17.584;2023-03-24T17:26:50;6.60;99.90
43143;DHT22;28750;59.842;17.584;2023-03-24T17:29:17;6.60;99.90
43143;DHT22;28750;59.842;17.584;2023-03-24T17:31:44;6.60;99.90
43143;DHT22;28750;59.842;17.584;2023-03-24T17:34:13;6.60;99.90
43143;DHT22;28750;59.842;17.584;2023-03-24T17:36:42;6.60;99.90
43143;DHT22;28750;59.842;17.584;2023-03-24T17:39:15;6.60;99.90
43143;DHT22;28750;59.842;17.584;2023-03-24T17:41:43;6.60;99.90
43143;DHT22;28750;59.842;17.584;2023-03-24T17:44:10;6.70;99.90
43143;DHT22;28750;59.842;17.584;2023-03-24T17:46:37;6.70;99.90
43143;DHT22;28750;59.842;17.584;2023-03-24T17:49:04;6.60;99.90
43143;DHT22;28750;59.842;17.584;2023-03-24T17:51:31;6.60;99.90
43143;DHT22;28750;59.842;17.584;2023-03-24T17:53:58;6.60;99.90
43143;DHT22;28750;59.842;17.584;2023-03-24T17:56:25;6.70;99.90
43143;DHT22;28750;59.842;17.584;2023-03-24T17:58:52;6.60;99.90
43143;DHT22;28750;59.842;17.584;2023-03-24T18:01:21;6.60;99.90
43143;DHT22;28750;59.842;17.584;2023-03-24T18:03:48;6.50;99.90
43143;DHT22;28750;59.842;17.584;2023-03-24T18:06:15;6.50;99.90
43143;DHT22;28750;59.842;17.584;2023-03-24T18:08:42;6.60;99.90
43143;DHT22;28750;59.842;17.584;2023-03-24T18:11:12;6.50;99.90
43143;DHT22;28750;59.842;17.584;2023-03-24T18:13:40;6.50;99.90
43143;DHT22;28750;59.842;17.584;2023-03-24T18:16:07;6.50;99.90
43143;DHT22;28750;59.842;17.584;2023-03-24T18:18:36;6.40;99.90
43143;DHT22;28750;59.842;17.584;2023-03-24T18:21:04;6.40;99.90
43143;DHT22;28750;59.842;17.584;2023-03-24T18:23:33;6.50;99.90
43143;DHT22;28750;59.842;17.584;2023-03-24T18:26:04;6.50;99.90
43143;DHT22;28750;59.842;17.584;2023-03-24T18:28:33;6.50;99.90
43143;DHT22;28750;59.842;17.584;2023-03-24T18:31:02;6.50;99.90
43143;DHT22;28750;59.842;17.584;2023-03-24T18:33:31;6.50;99.90
43143;DHT22;28750;59.842;17.584;2023-03-24T18:35:57;6.40;99.90
43143;DHT22;28750;59.842;17.584;2023-03-24T18:38:26;6.40;99.90
43143;DHT22;28750;59.842;17.584;2023-03-24T18:40:59;6.40;99.90
43143;DHT22;28750;59.842;17.584;2023-03-24T18:43:28;6.30;99.90
43143;DHT22;28750;59.842;17.584;2023-03-24T18:45:56;6.30;99.90
43143;DHT22;28750;59.842;17.584;2023-03-24T18:48:23;6.30;99.90
43143;DHT22;28750;59.842;17.584;2023-03-24T18:50:50;6.20;99.90
43143;DHT22;28750;59.842;17.584;2023-03-24T18:53:18;6.20;99.90
43143;DHT22;28750;59.842;17.584;2023-03-24T18:55:47;6.20;99.90